createdAt,value
2022-11-13T00:02:51.730Z,28.23
2022-11-13T00:08:03.564Z,35.60
2022-11-13T00:13:15.908Z,36.35
2022-11-13T00:18:27.776Z,37.80
2022-11-13T00:23:40.204Z,39.28
2022-11-13T00:28:59.979Z,38.25
2022-11-13T00:34:41.093Z,38.72
2022-11-13T00:39:44.032Z,39.88
2022-11-13T00:44:55.907Z,38.85
2022-11-13T00:50:08.798Z,37.63
2022-11-13T00:55:21.277Z,32.97
2022-11-13T01:00:33.533Z,33.67
2022-11-13T01:05:46.938Z,34.20
2022-11-13T01:10:59.043Z,33.75
2022-11-13T01:16:12.286Z,31.52
2022-11-13T01:21:27.007Z,25.00
2022-11-13T01:26:39.263Z,22.08
2022-11-13T01:31:51.875Z,17.67
2022-11-13T01:37:02.995Z,19.27
2022-11-13T01:42:14.884Z,22.90
2022-11-13T01:47:26.719Z,27.48
2022-11-13T01:52:39.807Z,25.23
2022-11-13T01:57:52.797Z,18.77
2022-11-13T02:03:05.023Z,18.70
2022-11-13T02:08:16.488Z,18.50
2022-11-13T02:13:28.480Z,17.40
2022-11-13T02:18:40.609Z,18.48
2022-11-13T02:24:02.591Z,18.77
2022-11-13T02:29:14.571Z,18.88
2022-11-13T02:34:26.816Z,22.65
2022-11-13T02:39:38.798Z,19.48
2022-11-13T02:44:51.261Z,18.50
2022-11-13T02:50:03.135Z,20.95
2022-11-13T02:55:16.414Z,23.08
2022-11-13T03:00:29.279Z,19.80
2022-11-13T03:05:40.864Z,20.23
2022-11-13T03:10:56.461Z,17.70
2022-11-13T03:16:13.534Z,17.30
2022-11-13T03:21:24.918Z,21.08
2022-11-13T03:26:37.217Z,16.95
2022-11-13T03:31:49.429Z,18.90
2022-11-13T03:37:01.598Z,16.50
2022-11-13T03:42:13.909Z,19.83
2022-11-13T03:47:26.083Z,19.83
2022-11-13T03:52:38.374Z,16.23
2022-11-13T03:57:50.938Z,16.52
2022-11-13T04:03:02.460Z,14.32
2022-11-13T04:08:14.600Z,15.30
2022-11-13T04:13:26.410Z,17.55
2022-11-13T04:18:38.144Z,16.65
2022-11-13T04:23:50.722Z,14.38
2022-11-13T04:29:02.342Z,14.30
2022-11-13T04:34:14.178Z,13.18
2022-11-13T04:39:26.142Z,14.98
2022-11-13T04:44:38.474Z,14.35
2022-11-13T04:49:50.174Z,14.88
2022-11-13T04:55:02.466Z,16.40
2022-11-13T05:00:15.980Z,17.67
2022-11-13T05:05:28.317Z,17.13
2022-11-13T05:10:39.806Z,17.15
2022-11-13T05:15:51.750Z,17.42
2022-11-13T05:21:04.531Z,17.13
2022-11-13T05:26:16.896Z,16.83
2022-11-13T05:31:29.182Z,14.60
2022-11-13T05:36:41.155Z,13.05
2022-11-13T05:41:57.080Z,14.25
2022-11-13T05:47:09.306Z,15.23
2022-11-13T05:52:21.861Z,13.75
2022-11-13T05:57:34.145Z,15.40
2022-11-13T06:02:45.752Z,15.95
2022-11-13T06:07:58.079Z,15.57
2022-11-13T06:13:09.579Z,17.35
2022-11-13T06:18:26.639Z,16.92
2022-11-13T06:23:39.612Z,17.58
2022-11-13T06:28:51.551Z,16.13
2022-11-13T06:34:03.574Z,15.98
2022-11-13T06:39:14.950Z,15.50
2022-11-13T06:44:27.712Z,15.15
2022-11-13T06:49:39.855Z,16.13
2022-11-13T06:54:51.741Z,16.63
2022-11-13T07:00:03.580Z,16.38
2022-11-13T07:05:16.069Z,17.65
2022-11-13T07:10:28.383Z,17.08
2022-11-13T07:15:40.895Z,17.00
2022-11-13T07:20:52.944Z,16.50
2022-11-13T07:26:05.617Z,22.42
2022-11-13T07:31:18.517Z,20.98
2022-11-13T07:36:31.006Z,20.20
2022-11-13T07:41:42.496Z,22.92
2022-11-13T07:46:54.176Z,21.75
2022-11-13T07:52:06.445Z,17.27
2022-11-13T07:57:19.362Z,20.23
2022-11-13T08:02:31.617Z,18.40
2022-11-13T08:07:48.644Z,17.52
2022-11-13T08:13:07.424Z,20.15
2022-11-13T08:18:19.494Z,20.17
2022-11-13T08:23:33.935Z,19.30
2022-11-13T08:28:46.002Z,21.77
2022-11-13T08:33:58.057Z,19.15
2022-11-13T08:39:10.568Z,18.85
2022-11-13T08:44:22.617Z,21.80
2022-11-13T08:49:34.698Z,22.63
2022-11-13T08:54:46.587Z,22.65
2022-11-13T08:59:58.530Z,21.50
2022-11-13T09:05:10.303Z,19.13
2022-11-13T09:10:22.476Z,21.42
2022-11-13T09:15:35.118Z,20.30
2022-11-13T09:20:47.582Z,16.80
2022-11-13T09:26:03.541Z,16.50
2022-11-13T09:31:15.666Z,16.75
2022-11-13T09:36:31.317Z,16.27
2022-11-13T09:41:57.219Z,15.82
2022-11-13T09:47:14.607Z,14.85
2022-11-13T09:52:39.553Z,14.95
2022-11-13T09:58:33.763Z,15.38
2022-11-13T10:04:01.361Z,15.27
2022-11-13T10:09:29.930Z,17.38
2022-11-13T10:14:47.049Z,16.20
2022-11-13T10:20:05.813Z,14.55
2022-11-13T10:25:26.141Z,13.45
2022-11-13T10:30:37.905Z,14.10
2022-11-13T10:36:07.714Z,13.40
2022-11-13T10:41:26.731Z,14.10
2022-11-13T10:46:38.942Z,15.43
2022-11-13T10:52:18.663Z,12.60
2022-11-13T10:57:34.997Z,12.68
2022-11-13T11:02:49.474Z,14.15
2022-11-13T11:08:02.196Z,16.08
2022-11-13T11:13:23.810Z,14.07
2022-11-13T11:19:04.958Z,14.35
2022-11-13T11:24:28.896Z,15.30
2022-11-13T11:29:47.940Z,13.25
2022-11-13T11:35:07.869Z,12.57
2022-11-13T11:40:25.279Z,13.40
2022-11-13T11:45:45.186Z,12.18
2022-11-13T11:56:30.419Z,12.48
2022-11-13T12:02:05.918Z,11.07
2022-11-13T12:07:29.481Z,11.50
2022-11-13T12:12:59.288Z,10.57
2022-11-13T12:18:17.641Z,10.13
2022-11-13T12:23:42.033Z,12.70
2022-11-13T12:29:11.781Z,9.75
2022-11-13T12:34:30.467Z,12.25
2022-11-13T12:40:01.229Z,12.20
2022-11-13T12:45:21.407Z,11.02
2022-11-13T12:50:34.207Z,11.18
2022-11-13T12:55:56.868Z,9.90
2022-11-13T13:01:11.496Z,12.02
2022-11-13T13:06:46.086Z,11.35
2022-11-13T13:12:19.018Z,12.05
2022-11-13T13:17:30.695Z,12.13
2022-11-13T13:22:41.976Z,12.05
2022-11-13T13:28:09.145Z,12.38
2022-11-13T13:33:23.140Z,11.35
2022-11-13T13:38:52.671Z,11.90
2022-11-13T13:44:22.306Z,11.30
2022-11-13T13:49:35.390Z,13.13
2022-11-13T13:54:46.727Z,12.25
2022-11-13T13:59:59.191Z,12.48
2022-11-13T14:05:30.430Z,11.75
2022-11-13T14:10:42.383Z,12.13
2022-11-13T14:16:14.990Z,11.23
2022-11-13T14:21:26.386Z,11.50
2022-11-13T14:26:37.553Z,11.80
2022-11-13T14:31:50.595Z,12.27
2022-11-13T14:37:15.246Z,11.60
2022-11-13T14:42:30.651Z,11.93
2022-11-13T14:47:42.271Z,13.43
2022-11-13T14:53:07.320Z,12.23
2022-11-13T14:58:39.131Z,12.15
2022-11-13T15:03:51.755Z,12.18
2022-11-13T15:09:04.673Z,11.95
2022-11-13T15:14:19.676Z,13.32
2022-11-13T15:19:35.538Z,12.90
2022-11-13T15:24:46.988Z,14.27
2022-11-13T15:29:58.332Z,14.30
2022-11-13T15:35:19.107Z,17.88
2022-11-13T15:40:31.187Z,15.88
2022-11-13T15:45:44.519Z,18.42
2022-11-13T15:50:56.692Z,20.13
2022-11-13T15:56:09.226Z,34.92
2022-11-13T16:01:21.813Z,31.25
2022-11-13T16:06:34.562Z,30.15
2022-11-13T16:11:46.259Z,26.67
2022-11-13T16:16:58.499Z,23.20
2022-11-13T16:22:27.715Z,29.08
2022-11-13T16:27:39.807Z,20.08
2022-11-13T16:32:52.008Z,20.75
2022-11-13T16:38:03.881Z,20.58
2022-11-13T16:43:15.907Z,18.85
2022-11-13T16:48:28.385Z,20.58
2022-11-13T16:53:40.196Z,24.80
2022-11-13T16:58:52.295Z,26.90
2022-11-13T17:04:04.263Z,27.13
2022-11-13T17:09:16.780Z,24.65
2022-11-13T17:14:28.914Z,24.77
2022-11-13T17:19:44.351Z,25.05
2022-11-13T17:24:57.024Z,26.65
2022-11-13T17:30:14.208Z,31.70
2022-11-13T17:35:26.261Z,27.58
2022-11-13T17:40:38.819Z,28.45
2022-11-13T17:45:54.439Z,30.02
2022-11-13T17:51:10.049Z,27.50
2022-11-13T17:56:23.743Z,22.80
2022-11-13T18:01:35.074Z,19.55
2022-11-13T18:06:47.663Z,21.95
2022-11-13T18:11:59.640Z,22.27
2022-11-13T18:17:10.884Z,19.67
2022-11-13T18:22:22.979Z,20.05
2022-11-13T18:27:34.753Z,29.60
2022-11-13T18:32:47.360Z,20.05
2022-11-13T18:37:59.350Z,19.48
2022-11-13T18:43:11.154Z,19.58
2022-11-13T18:48:23.226Z,21.00
2022-11-13T18:53:35.454Z,21.30
2022-11-13T18:58:48.625Z,19.98
2022-11-13T19:04:21.733Z,20.52
2022-11-13T19:09:34.227Z,21.83
2022-11-13T19:14:46.699Z,26.08
2022-11-13T19:19:59.350Z,25.50
2022-11-13T19:25:12.093Z,20.30
2022-11-13T19:30:24.000Z,21.55
2022-11-13T19:35:37.342Z,21.88
2022-11-13T19:40:51.229Z,22.55
2022-11-13T19:46:07.640Z,21.38
2022-11-13T19:51:21.265Z,21.88
2022-11-13T19:56:36.033Z,20.88
2022-11-13T20:01:48.376Z,20.15
2022-11-13T20:07:04.954Z,23.45
2022-11-13T20:12:17.083Z,23.17
2022-11-13T20:17:33.119Z,22.77
2022-11-13T20:22:45.055Z,22.58
2022-11-13T20:27:57.813Z,24.45
2022-11-13T20:33:10.378Z,23.83
2022-11-13T20:38:22.844Z,24.85
2022-11-13T20:43:35.475Z,30.00
2022-11-13T20:48:47.682Z,28.33
2022-11-13T20:53:59.824Z,24.88
2022-11-13T20:59:12.747Z,34.85
2022-11-13T21:04:25.213Z,34.65
2022-11-13T21:09:38.146Z,27.05
2022-11-13T21:14:52.540Z,24.35
2022-11-13T21:20:05.442Z,24.00
2022-11-13T21:25:18.499Z,23.17
2022-11-13T21:30:30.434Z,23.15
2022-11-13T21:35:42.820Z,23.98
2022-11-13T21:41:19.988Z,25.45
2022-11-13T21:46:38.205Z,27.02
2022-11-13T21:51:50.214Z,26.70
2022-11-13T21:57:02.546Z,25.67
2022-11-13T22:02:15.086Z,27.95
2022-11-13T22:07:27.652Z,28.42
2022-11-13T22:12:39.586Z,26.38
2022-11-13T22:17:52.027Z,27.67
2022-11-13T22:23:06.847Z,28.85
2022-11-13T22:28:18.657Z,29.80
2022-11-13T22:33:31.813Z,32.13
2022-11-13T22:38:43.907Z,28.25
2022-11-13T22:43:59.962Z,27.15
2022-11-13T22:49:13.158Z,28.80
2022-11-13T22:54:25.402Z,27.73
2022-11-13T22:59:37.630Z,28.23
2022-11-13T23:04:49.183Z,26.45
2022-11-13T23:10:00.905Z,26.20
2022-11-13T23:15:12.867Z,26.73
2022-11-13T23:20:24.899Z,27.90
2022-11-13T23:25:38.078Z,28.70
2022-11-13T23:30:50.455Z,30.38
2022-11-13T23:36:03.166Z,31.80
2022-11-13T23:41:15.010Z,28.75
2022-11-13T23:46:27.233Z,29.05
2022-11-13T23:51:39.549Z,27.42
2022-11-13T23:56:50.628Z,26.33
